Time,TemperatureF,DewpointF,PressureIn,WindDirection,WindDirectionDegrees,WindSpeedMPH,WindSpeedGustMPH,Humidity,HourlyPrecipIn,Conditions,Clouds,dailyrainin,SoftwareType,DateUTC
2013-04-21 00:01:00,47.0,39.1,29.61,ESE,121,0.0,0.0,74,0.00,RA,,0.00,WeatherDisplay:10.37,2013-04-21 04:01:00,
2013-04-21 00:06:00,47.1,39.2,29.61,SSW,206,0.0,0.0,74,0.00,RA,,0.00,WeatherDisplay:10.37,2013-04-21 04:06:00,
2013-04-21 00:11:00,47.3,39.8,29.61,SSW,208,0.0,0.0,75,0.00,CLR,,0.00,WeatherDisplay:10.37,2013-04-21 04:11:00,
2013-04-21 00:16:00,47.7,39.1,29.61,SSW,209,2.3,0.0,72,0.00,CLR,,0.00,WeatherDisplay:10.37,2013-04-21 04:16:00,
2013-04-21 00:21:00,48.2,39.2,29.61,SSW,210,0.0,0.0,71,0.00,CLR,,0.00,WeatherDisplay:10.37,2013-04-21 04:21:00,
2013-04-21 00:26:00,48.3,40.4,29.61,SSW,210,0.0,0.0,74,0.00,CLR,,0.00,WeatherDisplay:10.37,2013-04-21 04:26:00,
2013-04-21 00:31:00,48.0,39.8,29.61,SSW,210,0.0,0.0,73,0.00,CLR,,0.00,WeatherDisplay:10.37,2013-04-21 04:31:00,
2013-04-21 00:36:00,48.0,39.4,29.61,SSW,210,0.0,0.0,72,0.00,CLR,,0.00,WeatherDisplay:10.37,2013-04-21 04:36:00,
2013-04-21 00:41:00,48.2,39.6,29.61,SW,232,1.1,0.0,72,0.00,CLR,,0.00,WeatherDisplay:10.37,2013-04-21 04:41:00,
2013-04-21 00:46:00,48.3,39.7,29.61,SW,219,1.1,0.0,72,0.00,CLR,,0.00,WeatherDisplay:10.37,2013-04-21 04:46:00,
2013-04-21 00:51:00,48.5,39.9,29.61,SW,216,0.0,0.0,72,0.00,CLR,,0.00,WeatherDisplay:10.37,2013-04-21 04:51:00,
2013-04-21 00:56:00,48.3,40.0,29.61,SW,216,0.0,0.0,73,0.00,CLR,,0.00,WeatherDisplay:10.37,2013-04-21 04:56:00,
2013-04-21 01:01:00,48.3,40.0,29.61,SW,216,0.0,0.0,73,0.00,CLR,,0.00,WeatherDisplay:10.37,2013-04-21 05:01:00,
2013-04-21 01:06:00,48.3,40.0,29.61,SW,216,1.1,1.1,73,0.00,CLR,,0.00,WeatherDisplay:10.37,2013-04-21 05:06:00,
2013-04-21 01:11:00,48.3,40.4,29.61,SW,216,0.0,0.0,74,0.00,CLR,,0.00,WeatherDisplay:10.37,2013-04-21 05:11:00,
2013-04-21 01:16:00,48.2,41.0,29.61,SW,216,0.0,0.0,76,0.00,CLR,,0.00,WeatherDisplay:10.37,2013-04-21 05:16:00,
2013-04-21 01:21:00,47.9,41.0,29.61,SW,216,0.0,0.0,77,0.00,CLR,,0.00,WeatherDisplay:10.37,2013-04-21 05:21:00,
2013-04-21 01:26:00,47.4,40.9,29.62,SW,216,0.0,0.0,78,0.00,CLR,,0.00,WeatherDisplay:10.37,2013-04-21 05:26:00,
2013-04-21 01:31:00,47.0,40.8,29.62,NW,309,0.0,0.0,79,0.00,CLR,,0.00,WeatherDisplay:10.37,2013-04-21 05:31:00,
2013-04-21 01:36:00,46.5,40.7,29.62,NW,309,0.0,0.0,80,0.00,CLR,,0.00,WeatherDisplay:10.37,2013-04-21 05:36:00,
2013-04-21 01:41:00,46.2,40.7,29.63,NW,309,2.3,2.3,81,0.00,CLR,,0.00,WeatherDisplay:10.37,2013-04-21 05:41:00,
2013-04-21 01:46:00,45.8,40.3,29.63,West,277,0.0,0.0,81,0.00,CLR,,0.00,WeatherDisplay:10.37,2013-04-21 05:46:00,
2013-04-21 01:51:00,45.7,40.2,29.63,West,281,1.1,0.0,81,0.00,CLR,,0.00,WeatherDisplay:10.37,2013-04-21 05:51:00,
2013-04-21 01:56:00,45.4,40.2,29.63,West,280,1.1,1.1,82,0.00,CLR,,0.00,WeatherDisplay:10.37,2013-04-21 05:56:00,
2013-04-21 02:01:00,45.2,40.0,29.63,West,278,0.0,0.0,82,0.00,CLR,,0.00,WeatherDisplay:10.37,2013-04-21 06:01:00,
2013-04-21 02:06:00,45.2,40.0,29.63,West,278,0.0,0.0,82,0.00,CLR,,0.00,WeatherDisplay:10.37,2013-04-21 06:06:00,
2013-04-21 02:11:00,45.4,40.2,29.63,West,278,0.0,0.0,82,0.00,CLR,,0.00,WeatherDisplay:10.37,2013-04-21 06:11:00,
2013-04-21 02:16:00,45.5,40.3,29.63,West,278,1.1,1.1,82,0.00,CLR,,0.00,WeatherDisplay:10.37,2013-04-21 06:16:00,
2013-04-21 02:21:00,45.8,40.6,29.63,West,278,0.0,0.0,82,0.00,CLR,,0.00,WeatherDisplay:10.37,2013-04-21 06:21:00,
2013-04-21 02:26:00,45.8,40.6,29.63,West,278,0.0,0.0,82,0.00,CLR,,0.00,WeatherDisplay:10.37,2013-04-21 06:26:00,
2013-04-21 02:31:00,45.8,40.9,29.63,West,278,1.1,1.1,83,0.00,CLR,,0.00,WeatherDisplay:10.37,2013-04-21 06:31:00,
2013-04-21 02:36:00,45.8,40.9,29.63,West,278,0.0,0.0,83,0.00,CLR,,0.00,WeatherDisplay:10.37,2013-04-21 06:36:00,
2013-04-21 02:41:00,45.8,40.9,29.63,West,278,0.0,0.0,83,0.00,CLR,,0.00,WeatherDisplay:10.37,2013-04-21 06:41:00,
2013-04-21 02:46:00,45.8,40.9,29.63,WSW,244,1.1,1.1,83,0.00,CLR,,0.00,WeatherDisplay:10.37,2013-04-21 06:46:00,
2013-04-21 02:51:00,46.0,41.1,29.63,West,265,0.0,0.0,83,0.00,CLR,,0.00,WeatherDisplay:10.37,2013-04-21 06:51:00,
2013-04-21 02:56:00,46.1,41.2,29.63,West,267,1.1,0.0,83,0.00,CLR,,0.00,WeatherDisplay:10.37,2013-04-21 06:56:00,
2013-04-21 03:01:00,46.1,41.2,29.63,West,265,2.3,2.3,83,0.00,CLR,,0.00,WeatherDisplay:10.37,2013-04-21 07:01:00,
2013-04-21 03:06:00,46.1,40.9,29.63,West,263,0.0,0.0,82,0.00,CLR,,0.00,WeatherDisplay:10.37,2013-04-21 07:06:00,
2013-04-21 03:11:00,46.0,41.1,29.63,West,263,0.0,0.0,83,0.00,CLR,,0.00,WeatherDisplay:10.37,2013-04-21 07:11:00,
2013-04-21 03:16:00,45.8,40.9,29.63,West,263,0.0,0.0,83,0.00,CLR,,0.00,WeatherDisplay:10.37,2013-04-21 07:16:00,
2013-04-21 03:21:00,45.7,41.1,29.63,West,263,0.0,0.0,84,0.00,CLR,,0.00,WeatherDisplay:10.37,2013-04-21 07:21:00,
2013-04-21 03:26:00,45.4,40.8,29.64,West,263,0.0,0.0,84,0.00,CLR,,0.00,WeatherDisplay:10.37,2013-04-21 07:26:00,
2013-04-21 03:31:00,45.2,40.7,29.64,North,359,1.1,0.0,84,0.00,CLR,,0.00,WeatherDisplay:10.37,2013-04-21 07:31:00,
2013-04-21 03:36:00,44.9,40.4,29.64,North,359,0.0,0.0,84,0.00,CLR,,0.00,WeatherDisplay:10.37,2013-04-21 07:36:00,
2013-04-21 03:41:00,44.6,39.8,29.65,North,357,2.3,2.3,83,0.00,CLR,,0.00,WeatherDisplay:10.37,2013-04-21 07:41:00,
2013-04-21 03:46:00,44.5,39.7,29.65,North,357,0.0,0.0,83,0.00,CLR,,0.00,WeatherDisplay:10.37,2013-04-21 07:46:00,
2013-04-21 03:51:00,44.1,39.0,29.65,NE,40,3.5,3.5,82,0.00,CLR,,0.00,WeatherDisplay:10.37,2013-04-21 07:51:00,
2013-04-21 03:56:00,43.8,38.3,29.66,North,0,3.5,3.5,81,0.00,CLR,,0.00,WeatherDisplay:10.37,2013-04-21 07:56:00,
2013-04-21 04:01:00,43.5,37.7,29.66,North,3,0.0,0.0,80,0.00,CLR,,0.00,WeatherDisplay:10.37,2013-04-21 08:01:00,
2013-04-21 04:07:00,43.3,37.5,29.66,North,4,3.5,3.5,80,0.00,CLR,,0.00,WeatherDisplay:10.37,2013-04-21 08:07:00,
2013-04-21 04:12:00,43.2,37.1,29.66,North,7,1.1,0.0,79,0.00,CLR,,0.00,WeatherDisplay:10.37,2013-04-21 08:12:00,
2013-04-21 04:17:00,43.2,37.1,29.66,NE,38,2.3,2.3,79,0.00,CLR,,0.00,WeatherDisplay:10.37,2013-04-21 08:17:00,
2013-04-21 04:22:00,43.1,37.0,29.66,North,6,5.8,5.8,79,0.00,CLR,,0.00,WeatherDisplay:10.37,2013-04-21 08:22:00,
2013-04-21 04:27:00,42.9,36.8,29.67,North,1,3.5,3.5,79,0.00,CLR,,0.00,WeatherDisplay:10.37,2013-04-21 08:27:00,
2013-04-21 04:32:00,42.8,36.7,29.67,North,0,2.3,2.3,79,0.00,CLR,,0.00,WeatherDisplay:10.37,2013-04-21 08:32:00,
2013-04-21 04:37:00,42.6,36.5,29.67,NE,44,2.3,2.3,79,0.00,CLR,,0.00,WeatherDisplay:10.37,2013-04-21 08:37:00,
2013-04-21 04:42:00,42.3,36.3,29.67,ENE,62,3.5,3.5,79,0.00,CLR,,0.00,WeatherDisplay:10.37,2013-04-21 08:42:00,
2013-04-21 04:47:00,42.2,36.5,29.67,ENE,62,2.3,2.3,80,0.00,CLR,,0.00,WeatherDisplay:10.37,2013-04-21 08:47:00,
2013-04-21 04:52:00,42.1,36.4,29.67,NNE,23,4.6,4.6,80,0.00,CLR,,0.00,WeatherDisplay:10.37,2013-04-21 08:52:00,
2013-04-21 04:57:00,41.8,36.1,29.68,NNE,28,5.8,5.8,80,0.00,CLR,,0.00,WeatherDisplay:10.37,2013-04-21 08:57:00,
2013-04-21 05:02:00,41.8,36.1,29.68,NNE,14,6.9,6.9,80,0.00,CLR,,0.00,WeatherDisplay:10.37,2013-04-21 09:02:00,
2013-04-21 05:07:00,41.8,36.1,29.68,ENE,78,3.5,3.5,80,0.00,CLR,,0.00,WeatherDisplay:10.37,2013-04-21 09:07:00,
2013-04-21 05:12:00,41.8,36.1,29.69,NNE,16,4.6,4.6,80,0.00,CLR,,0.00,WeatherDisplay:10.37,2013-04-21 09:12:00,
2013-04-21 05:17:00,41.9,36.2,29.69,ENE,69,4.6,4.6,80,0.00,CLR,,0.00,WeatherDisplay:10.37,2013-04-21 09:17:00,
2013-04-21 05:22:00,41.9,35.9,29.69,NE,44,5.8,5.8,79,0.00,CLR,,0.00,WeatherDisplay:10.37,2013-04-21 09:22:00,
2013-04-21 05:27:00,42.1,35.7,29.69,NNE,28,2.0,2.0,78,0.00,CLR,,0.00,WeatherDisplay:10.37,2013-04-21 09:27:00,
2013-04-21 05:32:00,42.2,35.5,29.69,NE,51,2.3,2.3,77,0.00,CLR,,0.00,WeatherDisplay:10.37,2013-04-21 09:32:00,
2013-04-21 05:37:00,42.2,35.5,29.69,NNE,24,3.5,3.5,77,0.00,CLR,,0.00,WeatherDisplay:10.37,2013-04-21 09:37:00,
2013-04-21 05:42:00,42.3,35.3,29.70,NE,38,2.3,2.3,76,0.00,CLR,,0.00,WeatherDisplay:10.37,2013-04-21 09:42:00,
2013-04-21 05:47:00,42.5,35.1,29.70,ENE,58,4.6,4.6,75,0.00,CLR,,0.00,WeatherDisplay:10.37,2013-04-21 09:47:00,
2013-04-21 05:52:00,42.8,34.7,29.70,ENE,69,3.5,3.5,73,0.00,CLR,,0.00,WeatherDisplay:10.37,2013-04-21 09:52:00,
2013-04-21 05:57:00,42.8,34.4,29.71,NE,41,8.1,8.1,72,0.00,CLR,,0.00,WeatherDisplay:10.37,2013-04-21 09:57:00,
2013-04-21 06:02:00,42.9,34.5,29.71,NE,41,8.1,8.1,72,0.00,CLR,,0.00,WeatherDisplay:10.37,2013-04-21 10:02:00,
2013-04-21 06:07:00,43.1,34.0,29.71,East,95,4.6,4.6,70,0.00,CLR,,0.00,WeatherDisplay:10.37,2013-04-21 10:07:00,
2013-04-21 06:12:00,43.1,34.0,29.72,NE,40,2.3,2.3,70,0.00,CLR,,0.00,WeatherDisplay:10.37,2013-04-21 10:12:00,
2013-04-21 06:17:00,43.1,34.0,29.72,East,95,2.3,2.3,70,0.00,CLR,,0.00,WeatherDisplay:10.37,2013-04-21 10:17:00,
2013-04-21 06:22:00,43.1,33.6,29.72,NNE,28,6.9,6.9,69,0.00,CLR,,0.00,WeatherDisplay:10.37,2013-04-21 10:22:00,
2013-04-21 06:27:00,43.2,33.7,29.73,NE,37,5.8,5.8,69,0.00,CLR,,0.00,WeatherDisplay:10.37,2013-04-21 10:27:00,
2013-04-21 06:32:00,43.2,33.3,29.73,ENE,62,5.8,5.8,68,0.00,CLR,,0.00,WeatherDisplay:10.37,2013-04-21 10:32:00,
2013-04-21 06:37:00,43.2,33.3,29.73,NNE,30,5.8,5.8,68,0.00,CLR,,0.00,WeatherDisplay:10.37,2013-04-21 10:37:00,
2013-04-21 06:42:00,43.1,33.6,29.74,NE,35,0.0,0.0,69,0.00,CLR,,0.00,WeatherDisplay:10.37,2013-04-21 10:42:00,
2013-04-21 06:47:00,42.9,33.4,29.74,NE,38,2.3,2.3,69,0.00,CLR,,0.00,WeatherDisplay:10.37,2013-04-21 10:47:00,
2013-04-21 06:52:00,42.9,33.4,29.74,East,90,2.3,2.3,69,0.00,CLR,,0.00,WeatherDisplay:10.37,2013-04-21 10:52:00,
2013-04-21 06:57:00,42.9,33.8,29.75,NE,47,2.3,2.3,70,0.00,CLR,,0.00,WeatherDisplay:10.37,2013-04-21 10:57:00,
2013-04-21 07:02:00,42.8,33.7,29.75,NNE,23,1.1,1.1,70,0.00,CLR,,0.00,WeatherDisplay:10.37,2013-04-21 11:02:00,
2013-04-21 07:07:00,42.8,33.7,29.75,ENE,71,5.8,5.8,70,0.00,CLR,,0.00,WeatherDisplay:10.37,2013-04-21 11:07:00,
2013-04-21 07:12:00,42.9,33.8,29.75,NE,56,4.6,4.6,70,0.00,CLR,,0.00,WeatherDisplay:10.37,2013-04-21 11:12:00,
2013-04-21 07:17:00,43.1,34.0,29.75,SE,134,3.5,3.5,70,0.00,CLR,,0.00,WeatherDisplay:10.37,2013-04-21 11:17:00,
2013-04-21 07:22:00,43.1,33.6,29.75,NE,41,3.5,3.5,69,0.00,CLR,,0.00,WeatherDisplay:10.37,2013-04-21 11:22:00,
2013-04-21 07:27:00,43.3,33.8,29.76,NE,44,2.3,2.3,69,0.00,CLR,,0.00,WeatherDisplay:10.37,2013-04-21 11:27:00,
2013-04-21 07:32:00,43.5,34.0,29.76,ENE,65,6.9,6.9,69,0.00,CLR,,0.00,WeatherDisplay:10.37,2013-04-21 11:32:00,
2013-04-21 07:37:00,43.8,34.3,29.76,NE,52,3.5,3.5,69,0.00,CLR,,0.00,WeatherDisplay:10.37,2013-04-21 11:37:00,
2013-04-21 07:42:00,44.1,34.2,29.77,ESE,106,3.5,3.5,68,0.00,CLR,,0.00,WeatherDisplay:10.37,2013-04-21 11:42:00,
2013-04-21 07:47:00,44.5,34.2,29.77,SE,124,5.0,5.0,67,0.00,CLR,,0.00,WeatherDisplay:10.37,2013-04-21 11:47:00,
2013-04-21 07:52:00,44.9,34.2,29.77,East,80,3.5,3.5,66,0.00,CLR,,0.00,WeatherDisplay:10.37,2013-04-21 11:52:00,
2013-04-21 07:57:00,45.2,34.1,29.77,NE,45,3.5,3.5,65,0.00,CLR,,0.00,WeatherDisplay:10.37,2013-04-21 11:57:00,
2013-04-21 08:02:00,45.7,34.2,29.77,NE,56,3.5,3.5,64,0.00,CLR,,0.00,WeatherDisplay:10.37,2013-04-21 12:02:00,
2013-04-21 08:07:00,46.0,34.5,29.77,ESE,114,2.3,2.3,64,0.00,CLR,,0.00,WeatherDisplay:10.37,2013-04-21 12:07:00,
2013-04-21 08:12:00,46.2,34.3,29.78,NE,35,5.8,5.8,63,0.00,CLR,,0.00,WeatherDisplay:10.37,2013-04-21 12:12:00,
2013-04-21 08:17:00,46.5,34.2,29.78,NE,51,3.5,3.5,62,0.00,CLR,,0.00,WeatherDisplay:10.37,2013-04-21 12:17:00,
2013-04-21 08:22:00,46.8,34.5,29.78,NE,56,5.8,5.8,62,0.00,CLR,,0.00,WeatherDisplay:10.37,2013-04-21 12:22:00,
2013-04-21 08:27:00,47.1,33.9,29.79,ENE,59,11.5,11.5,60,0.00,CLR,,0.00,WeatherDisplay:10.37,2013-04-21 12:27:00,
2013-04-21 08:32:00,47.4,34.2,29.79,NE,34,8.1,8.1,60,0.00,CLR,,0.00,WeatherDisplay:10.37,2013-04-21 12:32:00,
2013-04-21 08:37:00,47.7,34.1,29.79,NNE,28,9.2,9.2,59,0.00,CLR,,0.00,WeatherDisplay:10.37,2013-04-21 12:37:00,
2013-04-21 08:42:00,48.3,34.6,29.79,ENE,59,8.1,8.1,59,0.00,CLR,,0.00,WeatherDisplay:10.37,2013-04-21 12:42:00,
2013-04-21 08:47:00,48.9,34.8,29.79,ESE,106,6.9,6.9,58,0.00,CLR,,0.00,WeatherDisplay:10.37,2013-04-21 12:47:00,
2013-04-21 08:52:00,49.1,33.6,29.79,ENE,65,6.9,6.9,55,0.00,CLR,,0.00,WeatherDisplay:10.37,2013-04-21 12:52:00,
2013-04-21 08:57:00,49.1,33.6,29.80,ENE,76,8.1,8.1,55,0.00,CLR,,0.00,WeatherDisplay:10.37,2013-04-21 12:57:00,
2013-04-21 09:02:00,48.9,33.4,29.80,SE,138,5.8,5.8,55,0.00,CLR,,0.00,WeatherDisplay:10.37,2013-04-21 13:02:00,
2013-04-21 09:07:00,48.8,33.3,29.80,ESE,102,8.1,8.1,55,0.00,CLR,,0.00,WeatherDisplay:10.37,2013-04-21 13:07:00,
2013-04-21 09:12:00,49.2,33.7,29.80,ENE,65,6.9,6.9,55,0.00,CLR,,0.00,WeatherDisplay:10.37,2013-04-21 13:12:00,
2013-04-21 09:17:00,49.8,33.3,29.80,East,90,5.8,5.8,53,0.00,CLR,,0.00,WeatherDisplay:10.37,2013-04-21 13:17:00,
2013-04-21 09:22:00,50.4,34.8,29.80,East,93,10.4,10.4,55,0.00,CLR,,0.00,WeatherDisplay:10.37,2013-04-21 13:22:00,
2013-04-21 09:27:00,50.2,33.7,29.81,East,92,10.4,10.4,53,0.00,CLR,,0.00,WeatherDisplay:10.37,2013-04-21 13:27:00,
2013-04-21 09:32:00,50.2,34.2,29.81,East,96,3.5,4.2,54,0.00,CLR,,0.00,WeatherDisplay:10.37,2013-04-21 13:32:00,
2013-04-21 09:37:00,50.7,34.2,29.81,NE,40,5.8,7.0,53,0.00,CLR,,0.00,WeatherDisplay:10.37,2013-04-21 13:37:00,
2013-04-21 09:42:00,51.3,34.7,29.81,NNE,27,6.9,6.9,53,0.00,CLR,,0.00,WeatherDisplay:10.37,2013-04-21 13:42:00,
2013-04-21 09:47:00,51.6,33.6,29.81,ESE,103,4.6,4.6,50,0.00,CLR,,0.00,WeatherDisplay:10.37,2013-04-21 13:47:00,
2013-04-21 09:52:00,51.6,33.0,29.81,North,0,16.1,16.1,49,0.00,CLR,,0.00,WeatherDisplay:10.37,2013-04-21 13:52:00,
2013-04-21 09:57:00,51.3,33.3,29.82,NNE,28,5.8,5.8,50,0.00,CLR,,0.00,WeatherDisplay:10.37,2013-04-21 13:57:00,
2013-04-21 10:02:00,51.3,32.8,29.82,ENE,76,6.9,6.9,49,0.00,CLR,,0.00,WeatherDisplay:10.37,2013-04-21 14:02:00,
2013-04-21 10:07:00,51.6,33.6,29.82,NNE,32,4.6,4.6,50,0.00,CLR,,0.00,WeatherDisplay:10.37,2013-04-21 14:07:00,
2013-04-21 10:12:00,51.9,32.8,29.82,NNE,16,11.5,11.5,48,0.00,CLR,,0.00,WeatherDisplay:10.37,2013-04-21 14:12:00,
2013-04-21 10:17:00,51.9,33.8,29.82,ENE,58,8.1,8.1,50,0.00,CLR,,0.00,WeatherDisplay:10.37,2013-04-21 14:17:00,
2013-04-21 10:22:00,51.9,33.3,29.82,ESE,102,5.0,5.0,49,0.00,CLR,,0.00,WeatherDisplay:10.37,2013-04-21 14:22:00,
2013-04-21 10:27:00,51.6,33.0,29.83,ESE,110,5.8,5.8,49,0.00,CLR,,0.00,WeatherDisplay:10.37,2013-04-21 14:27:00,
2013-04-21 10:32:00,51.7,33.6,29.83,North,7,3.5,3.5,50,0.00,CLR,,0.00,WeatherDisplay:10.37,2013-04-21 14:32:00,
2013-04-21 10:37:00,52.6,32.9,29.83,ENE,75,5.0,5.1,47,0.00,CLR,,0.00,WeatherDisplay:10.37,2013-04-21 14:37:00,
2013-04-21 10:42:00,52.9,33.2,29.83,East,82,11.5,11.5,47,0.00,CLR,,0.00,WeatherDisplay:10.37,2013-04-21 14:42:00,
2013-04-21 10:47:00,53.5,34.8,29.83,NE,45,4.6,4.6,49,0.00,CLR,,0.00,WeatherDisplay:10.37,2013-04-21 14:47:00,
2013-04-21 10:52:00,53.3,32.5,29.83,ESE,112,6.9,6.9,45,0.00,CLR,,0.00,WeatherDisplay:10.37,2013-04-21 14:52:00,
2013-04-21 10:57:00,53.3,34.1,29.83,ESE,110,4.6,4.6,48,0.00,CLR,,0.00,WeatherDisplay:10.37,2013-04-21 14:57:00,
2013-04-21 11:02:00,53.9,32.5,29.83,NNE,13,13.0,13.0,44,0.00,CLR,,0.00,WeatherDisplay:10.37,2013-04-21 15:02:00,
2013-04-21 11:07:00,54.1,32.6,29.83,NE,48,16.1,16.1,44,0.00,CLR,,0.00,WeatherDisplay:10.37,2013-04-21 15:07:00,
2013-04-21 11:12:00,54.4,32.9,29.83,SE,128,4.6,4.6,44,0.00,CLR,,0.00,WeatherDisplay:10.37,2013-04-21 15:12:00,
2013-04-21 11:17:00,54.2,33.3,29.83,ENE,78,3.5,3.8,45,0.00,CLR,,0.00,WeatherDisplay:10.37,2013-04-21 15:17:00,
2013-04-21 11:22:00,54.7,33.2,29.83,North,353,11.5,11.5,44,0.00,CLR,,0.00,WeatherDisplay:10.37,2013-04-21 15:22:00,
2013-04-21 11:27:00,55.1,34.7,29.83,NE,49,3.5,3.5,46,0.00,CLR,,0.00,WeatherDisplay:10.37,2013-04-21 15:27:00,
2013-04-21 11:32:00,54.5,33.0,29.83,East,85,6.9,6.9,44,0.00,CLR,,0.00,WeatherDisplay:10.37,2013-04-21 15:32:00,
2013-04-21 11:37:00,54.1,32.6,29.83,ESE,103,4.6,4.6,44,0.00,CLR,,0.00,WeatherDisplay:10.37,2013-04-21 15:37:00,
2013-04-21 11:42:00,53.9,33.6,29.83,East,99,6.9,6.9,46,0.00,CLR,,0.00,WeatherDisplay:10.37,2013-04-21 15:42:00,
2013-04-21 11:47:00,54.2,33.9,29.83,ESE,113,4.6,4.6,46,0.00,CLR,,0.00,WeatherDisplay:10.37,2013-04-21 15:47:00,
2013-04-21 11:52:00,54.7,34.8,29.83,East,80,4.6,4.6,47,0.00,CLR,,0.00,WeatherDisplay:10.37,2013-04-21 15:52:00,
2013-04-21 11:57:00,54.7,33.2,29.83,East,99,6.9,6.9,44,0.00,CLR,,0.00,WeatherDisplay:10.37,2013-04-21 15:57:00,
2013-04-21 12:02:00,54.8,33.8,29.83,ESE,114,11.5,11.5,45,0.00,CLR,,0.00,WeatherDisplay:10.37,2013-04-21 16:02:00,
2013-04-21 12:07:00,55.1,33.6,29.83,East,100,11.5,11.5,44,0.00,CLR,,0.00,WeatherDisplay:10.37,2013-04-21 16:07:00,
2013-04-21 12:12:00,55.3,33.7,29.82,NNE,14,11.5,11.5,44,0.00,CLR,,0.00,WeatherDisplay:10.37,2013-04-21 16:12:00,
2013-04-21 12:17:00,55.7,34.1,29.82,NE,49,4.6,4.6,44,0.00,CLR,,0.00,WeatherDisplay:10.37,2013-04-21 16:17:00,
2013-04-21 12:22:00,55.9,33.1,29.82,ESE,119,3.5,4.4,42,0.00,CLR,,0.00,WeatherDisplay:10.37,2013-04-21 16:22:00,
2013-04-21 12:27:00,55.7,34.7,29.83,SE,127,2.3,2.8,45,0.00,CLR,,0.00,WeatherDisplay:10.37,2013-04-21 16:27:00,
2013-04-21 12:32:00,56.2,34.0,29.83,ENE,78,6.9,6.9,43,0.00,CLR,,0.00,WeatherDisplay:10.37,2013-04-21 16:32:00,
2013-04-21 12:37:00,55.7,34.1,29.83,East,95,2.3,2.3,44,0.00,CLR,,0.00,WeatherDisplay:10.37,2013-04-21 16:37:00,
2013-04-21 12:42:00,56.0,33.2,29.82,NNE,25,4.0,4.0,42,0.00,CLR,,0.00,WeatherDisplay:10.37,2013-04-21 16:42:00,
2013-04-21 12:47:00,56.2,34.6,29.82,East,90,6.9,6.9,44,0.00,CLR,,0.00,WeatherDisplay:10.37,2013-04-21 16:47:00,
2013-04-21 12:52:00,56.3,32.9,29.82,NE,56,3.5,3.5,41,0.00,CLR,,0.00,WeatherDisplay:10.37,2013-04-21 16:52:00,
2013-04-21 12:57:00,56.7,34.4,29.81,NE,54,2.3,2.3,43,0.00,CLR,,0.00,WeatherDisplay:10.37,2013-04-21 16:57:00,
2013-04-21 13:02:00,57.3,35.0,29.81,ESE,123,11.5,11.5,43,0.00,CLR,,0.00,WeatherDisplay:10.37,2013-04-21 17:02:00,
2013-04-21 13:07:00,57.5,35.2,29.81,ESE,121,6.0,6.0,43,0.00,CLR,,0.00,WeatherDisplay:10.37,2013-04-21 17:07:00,
2013-04-21 13:12:00,57.3,35.0,29.81,ESE,109,3.5,3.5,43,0.00,CLR,,0.00,WeatherDisplay:10.37,2013-04-21 17:12:00,
2013-04-21 13:17:00,57.3,35.0,29.81,ENE,75,3.5,3.5,43,0.00,CLR,,0.00,WeatherDisplay:10.37,2013-04-21 17:17:00,
2013-04-21 13:22:00,57.3,35.0,29.81,East,93,3.5,3.5,43,0.00,CLR,,0.00,WeatherDisplay:10.37,2013-04-21 17:22:00,
2013-04-21 13:27:00,57.2,35.5,29.81,ESE,106,3.5,3.5,44,0.00,CLR,,0.00,WeatherDisplay:10.37,2013-04-21 17:27:00,
2013-04-21 13:32:00,56.7,35.0,29.81,NE,45,5.8,5.8,44,0.00,CLR,,0.00,WeatherDisplay:10.37,2013-04-21 17:32:00,
2013-04-21 13:37:00,57.5,35.7,29.81,NE,35,5.8,5.8,44,0.00,CLR,,0.00,WeatherDisplay:10.37,2013-04-21 17:37:00,
2013-04-21 13:42:00,57.8,36.0,29.81,East,96,4.6,4.6,44,0.00,CLR,,0.00,WeatherDisplay:10.37,2013-04-21 17:42:00,
2013-04-21 13:47:00,57.6,37.0,29.81,NE,34,5.8,5.8,46,0.00,CLR,,0.00,WeatherDisplay:10.37,2013-04-21 17:47:00,
2013-04-21 13:52:00,58.0,36.2,29.81,NE,40,4.6,4.6,44,0.00,CLR,,0.00,WeatherDisplay:10.37,2013-04-21 17:52:00,
2013-04-21 13:57:00,58.4,36.6,29.80,NNE,28,4.6,4.6,44,0.00,CLR,,0.00,WeatherDisplay:10.37,2013-04-21 17:57:00,
2013-04-21 14:02:00,58.0,36.2,29.80,East,96,6.9,6.9,44,0.00,CLR,,0.00,WeatherDisplay:10.37,2013-04-21 18:02:00,
2013-04-21 14:07:00,57.2,36.6,29.80,East,90,0.0,0.0,46,0.00,CLR,,0.00,WeatherDisplay:10.37,2013-04-21 18:07:00,
2013-04-21 14:12:00,58.0,36.8,29.80,East,95,6.9,6.9,45,0.00,CLR,,0.00,WeatherDisplay:10.37,2013-04-21 18:12:00,
2013-04-21 14:17:00,58.3,36.5,29.80,East,93,0.0,0.0,44,0.00,CLR,,0.00,WeatherDisplay:10.37,2013-04-21 18:17:00,
2013-04-21 14:22:00,57.8,37.7,29.80,ENE,66,11.5,11.5,47,0.00,CLR,,0.00,WeatherDisplay:10.37,2013-04-21 18:22:00,
2013-04-21 14:27:00,57.8,36.6,29.80,ESE,107,3.5,3.5,45,0.00,CLR,,0.00,WeatherDisplay:10.37,2013-04-21 18:27:00,
2013-04-21 14:32:00,57.3,37.2,29.80,ESE,117,6.9,6.9,47,0.00,CLR,,0.00,WeatherDisplay:10.37,2013-04-21 18:32:00,
2013-04-21 14:38:00,57.6,38.0,29.80,East,90,4.6,4.6,48,0.00,CLR,,0.00,WeatherDisplay:10.37,2013-04-21 18:38:00,
2013-04-21 14:43:00,58.4,37.1,29.79,SE,130,3.5,3.5,45,0.00,CLR,,0.00,WeatherDisplay:10.37,2013-04-21 18:43:00,
2013-04-21 14:48:00,58.1,37.4,29.79,East,99,10.4,10.4,46,0.00,CLR,,0.00,WeatherDisplay:10.37,2013-04-21 18:48:00,
2013-04-21 14:53:00,57.3,36.1,29.79,ESE,103,2.3,2.3,45,0.00,CLR,,0.00,WeatherDisplay:10.37,2013-04-21 18:53:00,
2013-04-21 14:58:00,57.5,37.4,29.79,ESE,103,1.1,1.1,47,0.00,CLR,,0.00,WeatherDisplay:10.37,2013-04-21 18:58:00,
2013-04-21 15:03:00,59.0,38.8,29.79,East,82,2.3,2.3,47,0.00,CLR,,0.00,WeatherDisplay:10.37,2013-04-21 19:03:00,
2013-04-21 15:08:00,58.4,38.2,29.79,East,99,3.5,3.5,47,0.00,CLR,,0.00,WeatherDisplay:10.37,2013-04-21 19:08:00,
2013-04-21 15:13:00,57.6,37.5,29.79,ESE,109,3.5,3.5,47,0.00,CLR,,0.00,WeatherDisplay:10.37,2013-04-21 19:13:00,
2013-04-21 15:18:00,57.2,37.7,29.79,SE,144,1.1,1.1,48,0.00,CLR,,0.00,WeatherDisplay:10.37,2013-04-21 19:18:00,
2013-04-21 15:23:00,58.1,38.5,29.79,ESE,121,3.5,3.5,48,0.00,CLR,,0.00,WeatherDisplay:10.37,2013-04-21 19:23:00,
2013-04-21 15:28:00,57.8,36.0,29.78,East,96,6.9,6.9,44,0.00,CLR,,0.00,WeatherDisplay:10.37,2013-04-21 19:28:00,
2013-04-21 15:33:00,57.2,36.0,29.78,ESE,106,2.3,2.3,45,0.00,CLR,,0.00,WeatherDisplay:10.37,2013-04-21 19:33:00,
2013-04-21 15:38:00,56.9,37.4,29.78,ENE,66,2.3,0.0,48,0.00,CLR,,0.00,WeatherDisplay:10.37,2013-04-21 19:38:00,
2013-04-21 15:43:00,57.3,37.2,29.78,ENE,76,1.1,1.1,47,0.00,CLR,,0.00,WeatherDisplay:10.37,2013-04-21 19:43:00,
2013-04-21 15:48:00,58.0,37.9,29.78,East,88,4.6,0.0,47,0.00,CLR,,0.00,WeatherDisplay:10.37,2013-04-21 19:48:00,
2013-04-21 15:53:00,57.6,37.5,29.78,East,86,5.8,5.8,47,0.00,CLR,,0.00,WeatherDisplay:10.37,2013-04-21 19:53:00,
2013-04-21 15:58:00,57.2,37.1,29.78,East,92,2.3,2.3,47,0.00,CLR,,0.00,WeatherDisplay:10.37,2013-04-21 19:58:00,
2013-04-21 16:03:00,57.5,38.5,29.78,NE,45,2.3,2.3,49,0.00,CLR,,0.00,WeatherDisplay:10.37,2013-04-21 20:03:00,
2013-04-21 16:08:00,58.6,39.0,29.78,East,100,1.1,0.0,48,0.00,CLR,,0.00,WeatherDisplay:10.37,2013-04-21 20:08:00,
2013-04-21 16:13:00,58.4,37.7,29.78,ESE,114,2.3,2.3,46,0.00,CLR,,0.00,WeatherDisplay:10.37,2013-04-21 20:13:00,
2013-04-21 16:18:00,58.1,37.4,29.78,East,82,4.6,4.6,46,0.00,CLR,,0.00,WeatherDisplay:10.37,2013-04-21 20:18:00,
2013-04-21 16:23:00,57.6,37.0,29.78,North,0,10.4,0.0,46,0.00,CLR,,0.00,WeatherDisplay:10.37,2013-04-21 20:23:00,
2013-04-21 16:28:00,57.6,37.5,29.77,NE,49,0.0,0.0,47,0.00,CLR,,0.00,WeatherDisplay:10.37,2013-04-21 20:28:00,
2013-04-21 16:33:00,57.8,36.6,29.77,ESE,103,3.5,3.5,45,0.00,CLR,,0.00,WeatherDisplay:10.37,2013-04-21 20:33:00,
2013-04-21 16:38:00,58.6,37.3,29.77,East,96,3.5,3.5,45,0.00,CLR,,0.00,WeatherDisplay:10.37,2013-04-21 20:38:00,
2013-04-21 16:43:00,58.7,36.8,29.77,East,93,6.9,6.9,44,0.00,CLR,,0.00,WeatherDisplay:10.37,2013-04-21 20:43:00,
2013-04-21 16:48:00,58.9,37.0,29.77,SE,128,2.3,2.3,44,0.00,CLR,,0.00,WeatherDisplay:10.37,2013-04-21 20:48:00,
2013-04-21 16:53:00,58.9,36.4,29.77,ESE,102,4.6,4.6,43,0.00,CLR,,0.00,WeatherDisplay:10.37,2013-04-21 20:53:00,
2013-04-21 16:58:00,58.1,36.9,29.76,NE,54,5.8,5.8,45,0.00,CLR,,0.00,WeatherDisplay:10.37,2013-04-21 20:58:00,
2013-04-21 17:03:00,57.3,37.8,29.76,ESE,106,0.0,0.0,48,0.00,CLR,,0.00,WeatherDisplay:10.37,2013-04-21 21:03:00,
2013-04-21 17:08:00,57.5,37.9,29.76,NE,38,1.1,1.1,48,0.00,CLR,,0.00,WeatherDisplay:10.37,2013-04-21 21:08:00,
2013-04-21 17:13:00,58.3,36.5,29.76,NNE,32,1.1,1.5,44,0.00,CLR,,0.00,WeatherDisplay:10.37,2013-04-21 21:13:00,
2013-04-21 17:18:00,58.9,37.0,29.76,ESE,103,2.3,2.3,44,0.00,CLR,,0.00,WeatherDisplay:10.37,2013-04-21 21:18:00,
2013-04-21 17:23:00,58.0,37.3,29.76,East,93,3.5,3.5,46,0.00,CLR,,0.00,WeatherDisplay:10.37,2013-04-21 21:23:00,
2013-04-21 17:28:00,57.3,37.2,29.77,East,95,1.1,1.1,47,0.00,CLR,,0.00,WeatherDisplay:10.37,2013-04-21 21:28:00,
2013-04-21 17:33:00,56.9,36.9,29.77,ESE,102,2.3,0.0,47,0.00,CLR,,0.00,WeatherDisplay:10.37,2013-04-21 21:33:00,
2013-04-21 17:38:00,56.9,36.9,29.77,NNE,20,0.0,0.0,47,0.00,CLR,,0.00,WeatherDisplay:10.37,2013-04-21 21:38:00,
2013-04-21 17:43:00,57.5,36.9,29.77,SE,127,4.6,0.0,46,0.00,CLR,,0.00,WeatherDisplay:10.37,2013-04-21 21:43:00,
2013-04-21 17:48:00,58.4,37.1,29.77,ESE,106,6.0,6.0,45,0.00,CLR,,0.00,WeatherDisplay:10.37,2013-04-21 21:48:00,
2013-04-21 17:53:00,58.6,36.7,29.77,East,100,4.6,4.6,44,0.00,CLR,,0.00,WeatherDisplay:10.37,2013-04-21 21:53:00,
2013-04-21 17:58:00,57.8,36.6,29.77,ESE,106,8.1,8.1,45,0.00,CLR,,0.00,WeatherDisplay:10.37,2013-04-21 21:58:00,
2013-04-21 18:03:00,57.0,37.0,29.77,ESE,103,4.6,4.6,47,0.00,CLR,,0.00,WeatherDisplay:10.37,2013-04-21 22:03:00,
2013-04-21 18:08:00,56.6,37.1,29.77,ESE,103,2.3,0.0,48,0.00,CLR,,0.00,WeatherDisplay:10.37,2013-04-21 22:08:00,
2013-04-21 18:13:00,56.7,37.7,29.77,ESE,103,1.1,1.1,49,0.00,CLR,,0.00,WeatherDisplay:10.37,2013-04-21 22:13:00,
2013-04-21 18:18:00,57.0,38.0,29.77,ESE,103,1.1,0.0,49,0.00,CLR,,0.00,WeatherDisplay:10.37,2013-04-21 22:18:00,
2013-04-21 18:23:00,57.3,37.2,29.77,ESE,120,2.3,2.3,47,0.00,CLR,,0.00,WeatherDisplay:10.37,2013-04-21 22:23:00,
2013-04-21 18:28:00,57.3,36.7,29.77,East,90,2.0,2.0,46,0.00,CLR,,0.00,WeatherDisplay:10.37,2013-04-21 22:28:00,
2013-04-21 18:33:00,57.5,36.9,29.77,ESE,123,3.5,3.5,46,0.00,CLR,,0.00,WeatherDisplay:10.37,2013-04-21 22:33:00,
2013-04-21 18:38:00,57.2,36.6,29.77,SE,124,1.1,1.1,46,0.00,CLR,,0.00,WeatherDisplay:10.37,2013-04-21 22:38:00,
2013-04-21 18:43:00,56.7,36.7,29.77,ESE,107,0.0,1.0,47,0.00,CLR,,0.00,WeatherDisplay:10.37,2013-04-21 22:43:00,
2013-04-21 18:48:00,56.2,37.8,29.77,ESE,107,0.0,0.0,50,0.00,CLR,,0.00,WeatherDisplay:10.37,2013-04-21 22:48:00,
2013-04-21 18:53:00,55.7,37.3,29.77,ESE,106,0.0,0.0,50,0.00,CLR,,0.00,WeatherDisplay:10.37,2013-04-21 22:53:00,
2013-04-21 18:58:00,55.4,38.5,29.77,ESE,106,0.0,0.0,53,0.00,CLR,,0.00,WeatherDisplay:10.37,2013-04-21 22:58:00,
2013-04-21 19:03:00,55.1,38.3,29.77,ESE,106,0.0,0.0,53,0.00,CLR,,0.00,WeatherDisplay:10.37,2013-04-21 23:03:00,
2013-04-21 19:08:00,55.0,39.1,29.77,ESE,112,4.6,0.0,55,0.00,CLR,,0.00,WeatherDisplay:10.37,2013-04-21 23:08:00,
2013-04-21 19:13:00,54.8,38.9,29.77,ESE,112,0.0,0.0,55,0.00,CLR,,0.00,WeatherDisplay:10.37,2013-04-21 23:13:00,
2013-04-21 19:18:00,54.5,37.7,29.77,SE,127,0.0,0.4,53,0.00,CLR,,0.00,WeatherDisplay:10.37,2013-04-21 23:18:00,
2013-04-21 19:23:00,54.4,38.1,29.77,SE,127,0.0,0.4,54,0.00,CLR,,0.00,WeatherDisplay:10.37,2013-04-21 23:23:00,
2013-04-21 19:28:00,54.2,37.4,29.77,SE,130,0.0,1.2,53,0.00,CLR,,0.00,WeatherDisplay:10.37,2013-04-21 23:28:00,
2013-04-21 19:33:00,54.1,37.8,29.77,SE,128,0.0,0.0,54,0.00,CLR,,0.00,WeatherDisplay:10.37,2013-04-21 23:33:00,
2013-04-21 19:38:00,53.8,38.0,29.77,ESE,119,0.0,0.0,55,0.00,CLR,,0.00,WeatherDisplay:10.37,2013-04-21 23:38:00,
2013-04-21 19:43:00,53.5,37.3,29.77,NE,49,0.0,0.0,54,0.00,CLR,,0.00,WeatherDisplay:10.37,2013-04-21 23:43:00,
2013-04-21 19:48:00,53.3,38.0,29.77,ESE,107,0.0,0.0,56,0.00,CLR,,0.00,WeatherDisplay:10.37,2013-04-21 23:48:00,
2013-04-21 19:53:00,53.1,37.8,29.77,ESE,107,0.0,0.0,56,0.00,CLR,,0.00,WeatherDisplay:10.37,2013-04-21 23:53:00,
2013-04-21 19:58:00,52.6,37.8,29.78,ENE,78,0.0,0.0,57,0.00,CLR,,0.00,WeatherDisplay:10.37,2013-04-21 23:58:00,
2013-04-21 20:03:00,52.3,38.4,29.78,ENE,78,0.0,0.0,59,0.00,CLR,,0.00,WeatherDisplay:10.37,2013-04-22 00:03:00,
2013-04-21 20:08:00,52.0,37.7,29.78,ENE,78,0.0,0.0,58,0.00,CLR,,0.00,WeatherDisplay:10.37,2013-04-22 00:08:00,
2013-04-21 20:13:00,51.7,37.8,29.78,ENE,78,0.0,0.0,59,0.00,CLR,,0.00,WeatherDisplay:10.37,2013-04-22 00:13:00,
2013-04-21 20:18:00,51.4,38.0,29.78,ENE,78,0.0,0.0,60,0.00,CLR,,0.00,WeatherDisplay:10.37,2013-04-22 00:18:00,
2013-04-21 20:23:00,51.1,37.7,29.78,ENE,78,0.0,0.0,60,0.00,CLR,,0.00,WeatherDisplay:10.37,2013-04-22 00:23:00,
2013-04-21 20:28:00,50.8,38.7,29.78,ENE,78,0.0,0.0,63,0.00,CLR,,0.00,WeatherDisplay:10.37,2013-04-22 00:28:00,
2013-04-21 20:33:00,50.4,38.3,29.78,ENE,78,0.0,0.0,63,0.00,CLR,,0.00,WeatherDisplay:10.37,2013-04-22 00:33:00,
2013-04-21 20:38:00,50.2,37.7,29.78,ENE,78,1.0,1.0,62,0.00,CLR,,0.00,WeatherDisplay:10.37,2013-04-22 00:38:00,
2013-04-21 20:43:00,50.2,38.1,29.79,ENE,78,0.0,0.0,63,0.00,CLR,,0.00,WeatherDisplay:10.37,2013-04-22 00:43:00,
2013-04-21 20:48:00,50.1,37.6,29.79,ENE,78,0.0,0.0,62,0.00,CLR,,0.00,WeatherDisplay:10.37,2013-04-22 00:48:00,
2013-04-21 20:53:00,50.1,37.6,29.79,East,80,0.0,0.0,62,0.00,CLR,,0.00,WeatherDisplay:10.37,2013-04-22 00:53:00,
2013-04-21 20:58:00,49.8,38.1,29.80,East,80,0.0,0.0,64,0.00,CLR,,0.00,WeatherDisplay:10.37,2013-04-22 00:58:00,
2013-04-21 21:03:00,49.6,37.9,29.80,East,80,0.0,0.0,64,0.00,CLR,,0.00,WeatherDisplay:10.37,2013-04-22 01:03:00,
2013-04-21 21:08:00,49.2,37.5,29.80,East,80,2.3,2.3,64,0.00,CLR,,0.00,WeatherDisplay:10.37,2013-04-22 01:08:00,
2013-04-21 21:13:00,49.1,37.4,29.81,East,80,0.0,0.0,64,0.00,CLR,,0.00,WeatherDisplay:10.37,2013-04-22 01:13:00,
2013-04-21 21:18:00,48.9,37.3,29.81,East,80,0.0,0.0,64,0.00,CLR,,0.00,WeatherDisplay:10.37,2013-04-22 01:18:00,
2013-04-21 21:23:00,48.8,37.6,29.81,East,80,2.3,2.3,65,0.00,CLR,,0.00,WeatherDisplay:10.37,2013-04-22 01:23:00,
2013-04-21 21:28:00,48.8,37.6,29.82,East,80,0.0,0.0,65,0.00,CLR,,0.00,WeatherDisplay:10.37,2013-04-22 01:28:00,
2013-04-21 21:33:00,48.5,37.3,29.82,East,80,0.0,0.0,65,0.00,CLR,,0.00,WeatherDisplay:10.37,2013-04-22 01:33:00,
2013-04-21 21:38:00,48.2,37.4,29.82,East,80,0.0,0.0,66,0.00,CLR,,0.00,WeatherDisplay:10.37,2013-04-22 01:38:00,
2013-04-21 21:43:00,48.0,37.2,29.82,East,80,0.0,0.0,66,0.00,CLR,,0.00,WeatherDisplay:10.37,2013-04-22 01:43:00,
2013-04-21 21:48:00,47.9,37.1,29.82,East,80,2.3,2.3,66,0.00,CLR,,0.00,WeatherDisplay:10.37,2013-04-22 01:48:00,
2013-04-21 21:53:00,47.9,37.1,29.82,East,83,0.0,0.0,66,0.00,CLR,,0.00,WeatherDisplay:10.37,2013-04-22 01:53:00,
2013-04-21 21:58:00,47.9,36.7,29.83,East,83,0.0,0.0,65,0.00,CLR,,0.00,WeatherDisplay:10.37,2013-04-22 01:58:00,
2013-04-21 22:03:00,47.7,36.5,29.83,East,85,1.1,1.1,65,0.00,CLR,,0.00,WeatherDisplay:10.37,2013-04-22 02:03:00,
2013-04-21 22:08:00,47.6,36.8,29.83,East,85,0.0,0.0,66,0.00,CLR,,0.00,WeatherDisplay:10.37,2013-04-22 02:08:00,
2013-04-21 22:13:00,47.4,36.6,29.83,East,85,2.3,2.3,66,0.00,CLR,,0.00,WeatherDisplay:10.37,2013-04-22 02:13:00,
2013-04-21 22:18:00,47.1,36.3,29.83,ESE,123,5.8,5.8,66,0.00,CLR,,0.00,WeatherDisplay:10.37,2013-04-22 02:18:00,
2013-04-21 22:23:00,47.1,36.3,29.83,ESE,123,1.1,1.1,66,0.00,CLR,,0.00,WeatherDisplay:10.37,2013-04-22 02:23:00,
2013-04-21 22:28:00,47.0,36.2,29.83,ESE,123,0.0,0.0,66,0.00,CLR,,0.00,WeatherDisplay:10.37,2013-04-22 02:28:00,
2013-04-21 22:33:00,46.8,36.0,29.83,ESE,123,0.0,0.0,66,0.00,CLR,,0.00,WeatherDisplay:10.37,2013-04-22 02:33:00,
2013-04-21 22:38:00,46.7,36.3,29.83,SE,131,0.0,0.0,67,0.00,CLR,,0.00,WeatherDisplay:10.37,2013-04-22 02:38:00,
2013-04-21 22:43:00,46.5,36.1,29.83,ESE,104,0.0,0.0,67,0.00,CLR,,0.00,WeatherDisplay:10.37,2013-04-22 02:43:00,
2013-04-21 22:48:00,46.4,36.0,29.83,ESE,106,3.5,3.5,67,0.00,CLR,,0.00,WeatherDisplay:10.37,2013-04-22 02:48:00,
2013-04-21 22:53:00,46.2,35.8,29.83,SE,144,0.0,0.0,67,0.00,CLR,,0.00,WeatherDisplay:10.37,2013-04-22 02:53:00,
2013-04-21 22:58:00,46.1,35.7,29.82,ESE,107,3.5,3.5,67,0.00,CLR,,0.00,WeatherDisplay:10.37,2013-04-22 02:58:00,
2013-04-21 23:03:00,46.0,35.7,29.82,ESE,114,2.3,2.3,67,0.00,CLR,,0.00,WeatherDisplay:10.37,2013-04-22 03:03:00,
2013-04-21 23:08:00,45.8,35.8,29.82,ESE,104,2.3,2.3,68,0.00,CLR,,0.00,WeatherDisplay:10.37,2013-04-22 03:08:00,
2013-04-21 23:13:00,45.5,35.5,29.82,ESE,106,4.6,4.6,68,0.00,CLR,,0.00,WeatherDisplay:10.37,2013-04-22 03:13:00,
2013-04-21 23:18:00,45.4,35.5,29.82,ESE,107,6.9,6.9,68,0.00,CLR,,0.00,WeatherDisplay:10.37,2013-04-22 03:18:00,
2013-04-21 23:23:00,45.2,35.3,29.82,ESE,102,3.5,3.5,68,0.00,CLR,,0.00,WeatherDisplay:10.37,2013-04-22 03:23:00,
2013-04-21 23:28:00,45.1,35.5,29.82,East,100,1.1,0.0,69,0.00,CLR,,0.00,WeatherDisplay:10.37,2013-04-22 03:28:00,
2013-04-21 23:33:00,44.9,35.7,29.82,East,100,1.1,1.1,70,0.00,CLR,,0.00,WeatherDisplay:10.37,2013-04-22 03:33:00,
2013-04-21 23:38:00,44.6,35.4,29.82,ESE,104,3.5,3.5,70,0.00,CLR,,0.00,WeatherDisplay:10.37,2013-04-22 03:38:00,
2013-04-21 23:44:00,44.3,35.1,29.81,ESE,104,0.0,0.0,70,0.00,CLR,,0.00,WeatherDisplay:10.37,2013-04-22 03:44:00,
2013-04-21 23:49:00,44.2,35.4,29.81,ESE,116,0.0,0.4,71,0.00,CLR,,0.00,WeatherDisplay:10.37,2013-04-22 03:49:00,
2013-04-21 23:54:00,43.9,35.5,29.81,East,85,0.0,0.0,72,0.00,CLR,,0.00,WeatherDisplay:10.37,2013-04-22 03:54:00,
2013-04-21 23:59:00,43.8,35.4,29.81,ENE,68,0.0,0.5,72,0.00,CLR,,0.00,WeatherDisplay:10.37,2013-04-22 03:59:00,